sensor_id;sensor_type;location;lat;lon;timestamp;pressure;altitude;pressure_sealevel;temperature;humidity
75604;BME280;64187;51.010;13.792;2023-04-03T00:02:48;101318.69;;;5.24;52.75
75604;BME280;64187;51.010;13.792;2023-04-03T00:07:48;101322.69;;;4.90;54.05
75604;BME280;64187;51.010;13.792;2023-04-03T00:12:48;101329.53;;;5.15;52.25
75604;BME280;64187;51.010;13.792;2023-04-03T00:17:47;101341.19;;;4.85;53.56
75604;BME280;64187;51.010;13.792;2023-04-03T00:22:46;101346.41;;;5.24;52.96
75604;BME280;64187;51.010;13.792;2023-04-03T00:27:45;101350.22;;;5.07;52.95
75604;BME280;64187;51.010;13.792;2023-04-03T00:32:44;101348.06;;;5.25;52.24
75604;BME280;64187;51.010;13.792;2023-04-03T00:37:43;101351.25;;;5.06;52.76
75604;BME280;64187;51.010;13.792;2023-04-03T00:42:43;101351.47;;;5.34;53.20
75604;BME280;64187;51.010;13.792;2023-04-03T00:47:42;101353.63;;;5.38;51.68
75604;BME280;64187;51.010;13.792;2023-04-03T00:52:41;101346.06;;;4.81;53.73
75604;BME280;64187;51.010;13.792;2023-04-03T00:57:41;101356.03;;;4.95;53.69
75604;BME280;64187;51.010;13.792;2023-04-03T01:02:40;101351.19;;;4.91;52.76
75604;BME280;64187;51.010;13.792;2023-04-03T01:07:41;101357.97;;;5.02;52.91
75604;BME280;64187;51.010;13.792;2023-04-03T01:12:44;101371.09;;;5.20;53.42
75604;BME280;64187;51.010;13.792;2023-04-03T01:17:51;101371.06;;;5.05;52.96
75604;BME280;64187;51.010;13.792;2023-04-03T01:28:33;101374.06;;;4.56;54.14
75604;BME280;64187;51.010;13.792;2023-04-03T01:33:33;101379.88;;;4.90;53.51
75604;BME280;64187;51.010;13.792;2023-04-03T01:38:32;101380.84;;;4.97;53.68
75604;BME280;64187;51.010;13.792;2023-04-03T01:43:31;101384.34;;;4.98;52.98
75604;BME280;64187;51.010;13.792;2023-04-03T01:48:30;101389.53;;;5.00;52.39
75604;BME280;64187;51.010;13.792;2023-04-03T01:53:29;101390.91;;;4.95;51.38
75604;BME280;64187;51.010;13.792;2023-04-03T01:58:28;101399.94;;;4.71;53.02
75604;BME280;64187;51.010;13.792;2023-04-03T02:03:28;101404.47;;;4.71;52.86
75604;BME280;64187;51.010;13.792;2023-04-03T02:08:27;101414.56;;;4.38;53.33
75604;BME280;64187;51.010;13.792;2023-04-03T02:13:25;101414.72;;;4.67;51.84
75604;BME280;64187;51.010;13.792;2023-04-03T02:18:24;101414.50;;;4.46;52.92
75604;BME280;64187;51.010;13.792;2023-04-03T02:23:23;101416.78;;;4.26;54.57
75604;BME280;64187;51.010;13.792;2023-04-03T02:28:22;101421.94;;;4.36;52.98
75604;BME280;64187;51.010;13.792;2023-04-03T02:33:21;101426.16;;;4.22;53.33
75604;BME280;64187;51.010;13.792;2023-04-03T02:38:22;101432.28;;;3.91;53.81
75604;BME280;64187;51.010;13.792;2023-04-03T02:43:21;101434.59;;;4.10;52.34
75604;BME280;64187;51.010;13.792;2023-04-03T02:48:20;101440.69;;;3.72;53.81
75604;BME280;64187;51.010;13.792;2023-04-03T02:53:19;101444.38;;;3.05;56.11
75604;BME280;64187;51.010;13.792;2023-04-03T02:58:20;101452.41;;;3.38;54.54
75604;BME280;64187;51.010;13.792;2023-04-03T03:03:19;101451.41;;;3.47;54.56
75604;BME280;64187;51.010;13.792;2023-04-03T03:08:18;101450.22;;;3.25;54.94
75604;BME280;64187;51.010;13.792;2023-04-03T03:13:18;101461.09;;;3.15;55.96
75604;BME280;64187;51.010;13.792;2023-04-03T03:18:18;101463.69;;;2.74;57.68
75604;BME280;64187;51.010;13.792;2023-04-03T03:23:17;101466.78;;;3.04;57.36
75604;BME280;64187;51.010;13.792;2023-04-03T03:28:16;101462.78;;;3.24;55.94
75604;BME280;64187;51.010;13.792;2023-04-03T03:33:15;101461.94;;;3.16;56.52
75604;BME280;64187;51.010;13.792;2023-04-03T03:38:15;101469.78;;;3.17;56.24
75604;BME280;64187;51.010;13.792;2023-04-03T03:43:15;101474.53;;;2.65;58.01
75604;BME280;64187;51.010;13.792;2023-04-03T03:48:14;101469.59;;;2.94;57.59
75604;BME280;64187;51.010;13.792;2023-04-03T03:53:13;101473.56;;;2.82;57.50
75604;BME280;64187;51.010;13.792;2023-04-03T03:58:14;101480.34;;;2.60;58.79
75604;BME280;64187;51.010;13.792;2023-04-03T04:03:13;101482.47;;;2.91;57.70
75604;BME280;64187;51.010;13.792;2023-04-03T04:08:14;101478.44;;;2.78;58.52
75604;BME280;64187;51.010;13.792;2023-04-03T04:13:15;101487.06;;;2.30;60.12
75604;BME280;64187;51.010;13.792;2023-04-03T04:18:14;101489.16;;;2.18;60.85
75604;BME280;64187;51.010;13.792;2023-04-03T04:23:16;101496.63;;;2.41;60.75
75604;BME280;64187;51.010;13.792;2023-04-03T04:28:16;101504.66;;;2.41;59.79
75604;BME280;64187;51.010;13.792;2023-04-03T04:33:16;101508.94;;;2.33;60.93
75604;BME280;64187;51.010;13.792;2023-04-03T04:38:16;101515.53;;;2.13;62.22
75604;BME280;64187;51.010;13.792;2023-04-03T04:43:16;101521.38;;;1.90;62.39
75604;BME280;64187;51.010;13.792;2023-04-03T04:48:17;101523.72;;;2.11;61.32
75604;BME280;64187;51.010;13.792;2023-04-03T04:53:16;101524.63;;;1.58;63.96
75604;BME280;64187;51.010;13.792;2023-04-03T04:58:15;101535.53;;;1.65;63.75
75604;BME280;64187;51.010;13.792;2023-04-03T05:03:15;101541.00;;;2.33;61.23
75604;BME280;64187;51.010;13.792;2023-04-03T05:08:14;101538.31;;;1.99;62.93
75604;BME280;64187;51.010;13.792;2023-04-03T05:13:14;101544.91;;;1.87;62.85
75604;BME280;64187;51.010;13.792;2023-04-03T05:18:13;101547.28;;;1.72;64.05
75604;BME280;64187;51.010;13.792;2023-04-03T05:23:13;101546.69;;;2.30;62.60
75604;BME280;64187;51.010;13.792;2023-04-03T05:28:12;101554.75;;;2.73;60.79
75604;BME280;64187;51.010;13.792;2023-04-03T05:33:11;101550.88;;;3.18;60.59
75604;BME280;64187;51.010;13.792;2023-04-03T05:38:19;101547.13;;;3.53;58.37
75604;BME280;64187;51.010;13.792;2023-04-03T05:43:19;101557.50;;;3.48;58.10
75604;BME280;64187;51.010;13.792;2023-04-03T05:48:18;101562.13;;;3.30;59.46
75604;BME280;64187;51.010;13.792;2023-04-03T05:53:26;101557.31;;;3.33;59.02
75604;BME280;64187;51.010;13.792;2023-04-03T05:58:28;101570.31;;;2.77;59.63
75604;BME280;64187;51.010;13.792;2023-04-03T06:03:27;101567.13;;;3.24;58.41
75604;BME280;64187;51.010;13.792;2023-04-03T06:08:26;101561.06;;;10.78;85.12
75604;BME280;64187;51.010;13.792;2023-04-03T06:13:25;101560.34;;;12.30;52.40
75604;BME280;64187;51.010;13.792;2023-04-03T06:18:24;101552.00;;;12.50;47.23
75604;BME280;64187;51.010;13.792;2023-04-03T06:23:23;101566.53;;;12.12;47.73
75604;BME280;64187;51.010;13.792;2023-04-03T06:28:22;101564.03;;;12.36;45.92
75604;BME280;64187;51.010;13.792;2023-04-03T06:33:21;101577.25;;;11.75;49.13
75604;BME280;64187;51.010;13.792;2023-04-03T06:38:19;101578.75;;;12.03;51.33
75604;BME280;64187;51.010;13.792;2023-04-03T06:43:19;101587.00;;;10.99;47.99
75604;BME280;64187;51.010;13.792;2023-04-03T06:48:17;101589.63;;;11.64;44.16
75604;BME280;64187;51.010;13.792;2023-04-03T06:53:16;101596.78;;;11.84;49.50
75604;BME280;64187;51.010;13.792;2023-04-03T06:58:16;101594.66;;;9.23;48.50
75604;BME280;64187;51.010;13.792;2023-04-03T07:03:17;101597.22;;;9.44;50.80
75604;BME280;64187;51.010;13.792;2023-04-03T07:08:18;101603.75;;;9.83;48.12
75604;BME280;64187;51.010;13.792;2023-04-03T07:13:17;101608.25;;;11.03;50.77
75604;BME280;64187;51.010;13.792;2023-04-03T07:18:15;101609.66;;;10.33;45.96
75604;BME280;64187;51.010;13.792;2023-04-03T07:23:15;101614.38;;;9.17;41.69
75604;BME280;64187;51.010;13.792;2023-04-03T07:28:15;101629.91;;;6.49;46.72
75604;BME280;64187;51.010;13.792;2023-04-03T07:33:16;101641.66;;;4.85;51.98
75604;BME280;64187;51.010;13.792;2023-04-03T07:38:15;101633.34;;;4.22;53.99
75604;BME280;64187;51.010;13.792;2023-04-03T07:43:15;101644.56;;;4.01;55.91
75604;BME280;64187;51.010;13.792;2023-04-03T07:48:15;101648.75;;;4.04;54.97
75604;BME280;64187;51.010;13.792;2023-04-03T07:53:15;101651.47;;;4.20;54.19
75604;BME280;64187;51.010;13.792;2023-04-03T07:58:17;101648.28;;;4.33;54.33
75604;BME280;64187;51.010;13.792;2023-04-03T08:03:16;101645.06;;;4.46;54.30
75604;BME280;64187;51.010;13.792;2023-04-03T08:08:18;101648.44;;;4.23;56.39
75604;BME280;64187;51.010;13.792;2023-04-03T08:13:19;101644.41;;;5.08;51.91
75604;BME280;64187;51.010;13.792;2023-04-03T08:18:18;101655.38;;;4.90;52.02
75604;BME280;64187;51.010;13.792;2023-04-03T08:23:20;101645.31;;;5.31;51.68
75604;BME280;64187;51.010;13.792;2023-04-03T08:28:19;101645.47;;;4.90;52.02
75604;BME280;64187;51.010;13.792;2023-04-03T08:33:18;101647.19;;;4.67;52.84
75604;BME280;64187;51.010;13.792;2023-04-03T08:38:17;101653.84;;;4.95;52.12
75604;BME280;64187;51.010;13.792;2023-04-03T08:43:30;101647.56;;;5.11;52.45
75604;BME280;64187;51.010;13.792;2023-04-03T08:48:36;101651.97;;;5.44;51.44
75604;BME280;64187;51.010;13.792;2023-04-03T08:53:46;101657.44;;;5.19;51.84
75604;BME280;64187;51.010;13.792;2023-04-03T08:59:05;101661.72;;;5.05;51.74
75604;BME280;64187;51.010;13.792;2023-04-03T09:04:14;101651.44;;;5.09;52.02
75604;BME280;64187;51.010;13.792;2023-04-03T09:09:23;101660.69;;;5.46;51.55
75604;BME280;64187;51.010;13.792;2023-04-03T09:19:58;101654.63;;;5.52;51.39
75604;BME280;64187;51.010;13.792;2023-04-03T09:25:22;101657.38;;;6.21;49.59
75604;BME280;64187;51.010;13.792;2023-04-03T09:30:24;101655.78;;;5.80;50.16
75604;BME280;64187;51.010;13.792;2023-04-03T09:45:38;101639.66;;;6.64;47.05
75604;BME280;64187;51.010;13.792;2023-04-03T09:50:37;101645.97;;;5.42;49.78
75604;BME280;64187;51.010;13.792;2023-04-03T09:55:43;101629.94;;;5.79;49.77
75604;BME280;64187;51.010;13.792;2023-04-03T10:00:42;101629.09;;;6.78;46.63
75604;BME280;64187;51.010;13.792;2023-04-03T10:05:41;101622.72;;;6.26;45.05
75604;BME280;64187;51.010;13.792;2023-04-03T10:10:46;101617.78;;;6.67;44.59
75604;BME280;64187;51.010;13.792;2023-04-03T10:16:09;101610.19;;;6.86;43.00
75604;BME280;64187;51.010;13.792;2023-04-03T10:21:23;101606.81;;;5.47;48.69
75604;BME280;64187;51.010;13.792;2023-04-03T10:26:36;101601.84;;;6.28;46.22
75604;BME280;64187;51.010;13.792;2023-04-03T10:31:46;101599.69;;;6.61;44.59
75604;BME280;64187;51.010;13.792;2023-04-03T10:36:57;101604.78;;;6.71;42.74
75604;BME280;64187;51.010;13.792;2023-04-03T10:42:28;101589.31;;;6.20;42.84
75604;BME280;64187;51.010;13.792;2023-04-03T10:47:54;101590.53;;;6.18;42.12
75604;BME280;64187;51.010;13.792;2023-04-03T10:58:26;101569.94;;;7.72;39.57
75604;BME280;64187;51.010;13.792;2023-04-03T11:03:38;101571.84;;;7.99;37.86
75604;BME280;64187;51.010;13.792;2023-04-03T11:08:49;101576.22;;;7.58;38.09
75604;BME280;64187;51.010;13.792;2023-04-03T11:19:22;101571.94;;;6.76;37.98
75604;BME280;64187;51.010;13.792;2023-04-03T11:24:29;101564.69;;;6.91;37.29
75604;BME280;64187;51.010;13.792;2023-04-03T11:29:34;101563.22;;;6.74;36.78
75604;BME280;64187;51.010;13.792;2023-04-03T11:34:40;101562.09;;;6.83;37.16
75604;BME280;64187;51.010;13.792;2023-04-03T11:39:50;101561.09;;;7.20;37.58
75604;BME280;64187;51.010;13.792;2023-04-03T11:44:51;101559.47;;;7.41;37.69
75604;BME280;64187;51.010;13.792;2023-04-03T12:00:51;101548.84;;;6.81;36.87
75604;BME280;64187;51.010;13.792;2023-04-03T12:26:50;101550.97;;;6.86;40.23
75604;BME280;64187;51.010;13.792;2023-04-03T12:42:29;101544.78;;;7.07;38.05
75604;BME280;64187;51.010;13.792;2023-04-03T12:47:34;101535.97;;;7.13;37.23
75604;BME280;64187;51.010;13.792;2023-04-03T12:52:41;101544.31;;;7.40;37.98
75604;BME280;64187;51.010;13.792;2023-04-03T12:57:43;101533.84;;;7.08;37.74
75604;BME280;64187;51.010;13.792;2023-04-03T13:02:44;101552.19;;;6.54;39.43
75604;BME280;64187;51.010;13.792;2023-04-03T13:07:49;101552.56;;;7.17;39.52
75604;BME280;64187;51.010;13.792;2023-04-03T13:13:07;101548.31;;;7.07;39.55
75604;BME280;64187;51.010;13.792;2023-04-03T13:18:39;101537.53;;;7.07;39.50
75604;BME280;64187;51.010;13.792;2023-04-03T13:23:43;101542.41;;;7.55;38.23
75604;BME280;64187;51.010;13.792;2023-04-03T13:28:43;101542.97;;;7.29;37.67
75604;BME280;64187;51.010;13.792;2023-04-03T13:34:17;101543.47;;;7.18;37.87
75604;BME280;64187;51.010;13.792;2023-04-03T13:39:20;101534.28;;;7.48;38.60
75604;BME280;64187;51.010;13.792;2023-04-03T13:49:38;101532.84;;;6.20;40.85
75604;BME280;64187;51.010;13.792;2023-04-03T13:54:39;101526.63;;;6.05;41.40
75604;BME280;64187;51.010;13.792;2023-04-03T13:59:38;101535.84;;;5.88;41.76
75604;BME280;64187;51.010;13.792;2023-04-03T14:09:35;101514.69;;;6.67;39.82
75604;BME280;64187;51.010;13.792;2023-04-03T14:14:36;101513.69;;;7.41;38.04
75604;BME280;64187;51.010;13.792;2023-04-03T14:19:37;101508.63;;;6.95;35.15
75604;BME280;64187;51.010;13.792;2023-04-03T14:24:36;101519.78;;;6.77;39.78
75604;BME280;64187;51.010;13.792;2023-04-03T14:29:35;101522.50;;;6.32;39.98
75604;BME280;64187;51.010;13.792;2023-04-03T14:34:34;101526.28;;;6.38;40.40
75604;BME280;64187;51.010;13.792;2023-04-03T14:39:33;101527.13;;;6.53;39.67
75604;BME280;64187;51.010;13.792;2023-04-03T14:44:32;101529.81;;;6.53;38.81
75604;BME280;64187;51.010;13.792;2023-04-03T14:49:31;101523.53;;;6.46;39.40
75604;BME280;64187;51.010;13.792;2023-04-03T14:54:30;101522.56;;;6.83;39.26
75604;BME280;64187;51.010;13.792;2023-04-03T14:59:30;101524.06;;;6.27;40.16
75604;BME280;64187;51.010;13.792;2023-04-03T15:04:29;101522.38;;;6.25;41.52
75604;BME280;64187;51.010;13.792;2023-04-03T15:09:28;101530.28;;;6.42;40.25
75604;BME280;64187;51.010;13.792;2023-04-03T15:14:27;101519.44;;;6.50;39.63
75604;BME280;64187;51.010;13.792;2023-04-03T15:19:40;101527.59;;;6.57;39.63
75604;BME280;64187;51.010;13.792;2023-04-03T15:24:39;101513.09;;;6.13;39.64
75604;BME280;64187;51.010;13.792;2023-04-03T15:29:39;101519.22;;;6.07;39.42
75604;BME280;64187;51.010;13.792;2023-04-03T15:34:39;101515.47;;;6.31;38.86
75604;BME280;64187;51.010;13.792;2023-04-03T15:39:38;101513.59;;;6.17;38.89
75604;BME280;64187;51.010;13.792;2023-04-03T15:44:37;101511.63;;;6.25;38.96
75604;BME280;64187;51.010;13.792;2023-04-03T15:49:35;101516.19;;;6.25;39.10
75604;BME280;64187;51.010;13.792;2023-04-03T15:54:35;101517.00;;;6.25;39.24
75604;BME280;64187;51.010;13.792;2023-04-03T15:59:34;101520.97;;;6.00;39.79
75604;BME280;64187;51.010;13.792;2023-04-03T16:04:33;101528.13;;;6.08;39.78
75604;BME280;64187;51.010;13.792;2023-04-03T16:09:32;101522.81;;;5.99;40.44
75604;BME280;64187;51.010;13.792;2023-04-03T16:14:32;101521.72;;;5.86;40.27
75604;BME280;64187;51.010;13.792;2023-04-03T16:19:32;101527.66;;;6.04;41.02
75604;BME280;64187;51.010;13.792;2023-04-03T16:24:30;101525.94;;;5.65;41.33
75604;BME280;64187;51.010;13.792;2023-04-03T16:29:30;101531.81;;;5.83;40.71
75604;BME280;64187;51.010;13.792;2023-04-03T16:34:29;101521.22;;;5.67;40.79
75604;BME280;64187;51.010;13.792;2023-04-03T16:39:31;101533.75;;;5.75;40.42
75604;BME280;64187;51.010;13.792;2023-04-03T16:44:30;101534.59;;;5.75;40.73
75604;BME280;64187;51.010;13.792;2023-04-03T16:49:29;101531.81;;;5.83;40.66
75604;BME280;64187;51.010;13.792;2023-04-03T16:54:31;101528.94;;;5.47;41.70
75604;BME280;64187;51.010;13.792;2023-04-03T16:59:30;101536.25;;;5.30;41.75
75604;BME280;64187;51.010;13.792;2023-04-03T17:04:29;101535.97;;;5.25;41.58
75604;BME280;64187;51.010;13.792;2023-04-03T17:09:28;101535.22;;;5.39;41.45
75604;BME280;64187;51.010;13.792;2023-04-03T17:14:27;101535.97;;;5.25;41.31
75604;BME280;64187;51.010;13.792;2023-04-03T17:19:27;101528.03;;;5.01;42.13
75604;BME280;64187;51.010;13.792;2023-04-03T17:24:27;101540.59;;;5.08;41.99
75604;BME280;64187;51.010;13.792;2023-04-03T17:29:26;101550.09;;;4.88;42.09
75604;BME280;64187;51.010;13.792;2023-04-03T17:34:25;101549.25;;;4.87;42.21
75604;BME280;64187;51.010;13.792;2023-04-03T17:39:23;101550.50;;;4.68;43.21
75604;BME280;64187;51.010;13.792;2023-04-03T17:44:23;101547.16;;;10.15;66.34
75604;BME280;64187;51.010;13.792;2023-04-03T17:49:21;101548.47;;;8.07;36.74
75604;BME280;64187;51.010;13.792;2023-04-03T17:54:21;101561.75;;;6.56;38.97
75604;BME280;64187;51.010;13.792;2023-04-03T17:59:20;101558.19;;;5.65;40.93
75604;BME280;64187;51.010;13.792;2023-04-03T18:04:19;101553.13;;;5.16;43.28
75604;BME280;64187;51.010;13.792;2023-04-03T18:09:20;101561.91;;;5.02;42.18
75604;BME280;64187;51.010;13.792;2023-04-03T18:14:23;101554.78;;;4.86;42.68
75604;BME280;64187;51.010;13.792;2023-04-03T18:19:24;101550.44;;;4.29;44.60
75604;BME280;64187;51.010;13.792;2023-04-03T18:24:26;101548.75;;;4.20;44.35
75604;BME280;64187;51.010;13.792;2023-04-03T18:29:28;101549.03;;;4.58;47.00
75604;BME280;64187;51.010;13.792;2023-04-03T18:34:29;101549.38;;;4.94;44.14
75604;BME280;64187;51.010;13.792;2023-04-03T18:39:28;101555.59;;;4.86;44.57
75604;BME280;64187;51.010;13.792;2023-04-03T18:44:30;101550.50;;;5.08;44.08
75604;BME280;64187;51.010;13.792;2023-04-03T18:49:31;101558.50;;;5.16;42.95
75604;BME280;64187;51.010;13.792;2023-04-03T18:54:31;101551.09;;;5.18;42.86
75604;BME280;64187;51.010;13.792;2023-04-03T18:59:30;101540.41;;;5.10;43.70
75604;BME280;64187;51.010;13.792;2023-04-03T19:04:29;101546.34;;;4.58;43.80
75604;BME280;64187;51.010;13.792;2023-04-03T19:09:29;101544.88;;;4.39;44.80
75604;BME280;64187;51.010;13.792;2023-04-03T19:14:28;101545.69;;;4.95;44.22
75604;BME280;64187;51.010;13.792;2023-04-03T19:19:26;101538.41;;;5.12;45.51
75604;BME280;64187;51.010;13.792;2023-04-03T19:24:25;101551.19;;;5.02;44.64
75604;BME280;64187;51.010;13.792;2023-04-03T19:29:24;101548.25;;;5.20;43.64
75604;BME280;64187;51.010;13.792;2023-04-03T19:34:23;101533.94;;;5.27;44.04
75604;BME280;64187;51.010;13.792;2023-04-03T19:39:22;101530.75;;;5.24;44.36
75604;BME280;64187;51.010;13.792;2023-04-03T19:44:21;101537.91;;;5.31;44.52
75604;BME280;64187;51.010;13.792;2023-04-03T19:49:20;101544.63;;;5.04;45.22
75604;BME280;64187;51.010;13.792;2023-04-03T19:54:20;101539.66;;;5.24;43.71
75604;BME280;64187;51.010;13.792;2023-04-03T19:59:19;101532.22;;;5.34;44.41
75604;BME280;64187;51.010;13.792;2023-04-03T20:04:18;101531.41;;;5.26;44.82
75604;BME280;64187;51.010;13.792;2023-04-03T20:09:17;101528.44;;;5.21;44.92
75604;BME280;64187;51.010;13.792;2023-04-03T20:14:17;101529.25;;;5.21;45.06
75604;BME280;64187;51.010;13.792;2023-04-03T20:19:16;101532.94;;;4.97;45.58
75604;BME280;64187;51.010;13.792;2023-04-03T20:24:15;101529.59;;;4.95;46.72
75604;BME280;64187;51.010;13.792;2023-04-03T20:29:15;101529.16;;;5.14;45.60
75604;BME280;64187;51.010;13.792;2023-04-03T20:34:15;101526.91;;;4.95;46.41
75604;BME280;64187;51.010;13.792;2023-04-03T20:39:14;101526.94;;;4.87;46.22
75604;BME280;64187;51.010;13.792;2023-04-03T20:44:14;101524.34;;;5.02;46.28
75604;BME280;64187;51.010;13.792;2023-04-03T20:49:15;101515.56;;;4.37;47.93
75604;BME280;64187;51.010;13.792;2023-04-03T20:54:14;101518.63;;;4.18;48.72
75604;BME280;64187;51.010;13.792;2023-04-03T20:59:15;101513.00;;;4.52;48.44
75604;BME280;64187;51.010;13.792;2023-04-03T21:04:24;101514.91;;;4.27;49.38
75604;BME280;64187;51.010;13.792;2023-04-03T21:20:38;101506.44;;;4.54;50.47
75604;BME280;64187;51.010;13.792;2023-04-03T21:25:38;101508.88;;;4.81;50.44
75604;BME280;64187;51.010;13.792;2023-04-03T21:30:36;101509.13;;;4.63;51.73
75604;BME280;64187;51.010;13.792;2023-04-03T21:35:35;101504.63;;;4.47;52.80
75604;BME280;64187;51.010;13.792;2023-04-03T21:40:34;101514.38;;;4.79;51.50
75604;BME280;64187;51.010;13.792;2023-04-03T21:45:33;101505.91;;;4.67;52.60
75604;BME280;64187;51.010;13.792;2023-04-03T21:50:32;101510.50;;;4.90;52.29
75604;BME280;64187;51.010;13.792;2023-04-03T21:55:31;101504.19;;;5.06;51.79
75604;BME280;64187;51.010;13.792;2023-04-03T22:00:29;101501.03;;;4.71;54.11
75604;BME280;64187;51.010;13.792;2023-04-03T22:05:30;101502.41;;;4.98;53.52
75604;BME280;64187;51.010;13.792;2023-04-03T22:10:29;101494.41;;;4.90;53.88
75604;BME280;64187;51.010;13.792;2023-04-03T22:15:29;101498.53;;;5.01;53.84
75604;BME280;64187;51.010;13.792;2023-04-03T22:20:28;101491.28;;;4.78;54.54
75604;BME280;64187;51.010;13.792;2023-04-03T22:25:26;101478.59;;;12.20;62.25
75604;BME280;64187;51.010;13.792;2023-04-03T22:30:25;101470.38;;;10.16;41.52
75604;BME280;64187;51.010;13.792;2023-04-03T22:35:24;101479.00;;;7.31;47.95
75604;BME280;64187;51.010;13.792;2023-04-03T22:40:25;101490.50;;;6.22;50.43
75604;BME280;64187;51.010;13.792;2023-04-03T22:45:23;101478.41;;;5.66;52.69
75604;BME280;64187;51.010;13.792;2023-04-03T22:50:23;101491.16;;;5.49;53.32
75604;BME280;64187;51.010;13.792;2023-04-03T22:55:21;101478.25;;;4.98;54.22
75604;BME280;64187;51.010;13.792;2023-04-03T23:00:21;101483.25;;;5.01;55.18
75604;BME280;64187;51.010;13.792;2023-04-03T23:05:21;101473.75;;;4.67;56.30
75604;BME280;64187;51.010;13.792;2023-04-03T23:10:20;101475.63;;;4.90;55.16
75604;BME280;64187;51.010;13.792;2023-04-03T23:15:19;101474.84;;;5.04;55.23
75604;BME280;64187;51.010;13.792;2023-04-03T23:20:18;101478.94;;;4.61;56.60
75604;BME280;64187;51.010;13.792;2023-04-03T23:25:17;101482.56;;;4.76;56.12
75604;BME280;64187;51.010;13.792;2023-04-03T23:30:16;101477.28;;;4.60;56.75
75604;BME280;64187;51.010;13.792;2023-04-03T23:35:14;101484.56;;;4.35;57.47
75604;BME280;64187;51.010;13.792;2023-04-03T23:40:14;101477.59;;;4.25;58.32
75604;BME280;64187;51.010;13.792;2023-04-03T23:45:13;101479.63;;;4.15;57.92
75604;BME280;64187;51.010;13.792;2023-04-03T23:50:12;101470.75;;;4.54;57.73
75604;BME280;64187;51.010;13.792;2023-04-03T23:55:11;101475.38;;;4.29;57.30
